Winigan, Missouri
Current Conditions -  °F | °C
As of 6:55 PM on Thursday 27 Nov 2014 (Local Time) from KIRK Reporting Station
Clear Clear  
Wind Chill: 10°   Ceiling: Unl
Heat Index: 20°   Visibility: 10mi
Dew Point: 11°   Wind: 8mph
Humidity: 68%   Direction: 80°E
Pressure: 30.42"   Gusts: NA
Location:  40.05°N, 92.9°W
Report Text: KIRK 280055Z AUTO 08007KT 10SM CLR M07/M12 A3042 RMK AO2 SLP319 T10671117
Loading
Personal Weather Stations






























Interactive Weather Map New forecast layout! Learn more

10-Day Weather Forecast

Advertisements
Track Severe Weather on mobile